Time;durP1;ratioP1;P1;durP2;ratioP2;P2;SDS_P1;SDS_P2;PMS_P1;PMS_P2;Temp;Humidity;BMP_temperature;BMP_pressure;BME280_temperature;BME280_humidity;BME280_pressure;Samples;Min_cycle;Max_cycle;Signal;HPM_P1;HPM_P2
2021/03/31 00:00:25;;;;;;;0.50;0.50;;;;;;;12.65;38.73;97827.63;29991;204;6005;-57
2021/03/31 00:00:55;;;;;;;0.50;0.50;;;;;;;12.62;38.41;97817.28;29992;203;6000;-57
2021/03/31 00:01:26;;;;;;;0.50;0.50;;;;;;;12.65;38.72;97822.16;29991;269;6004;-58
2021/03/31 00:01:57;;;;;;;0.50;0.50;;;;;;;12.64;38.59;97828.72;29992;235;6000;-57
2021/03/31 00:02:27;;;;;;;0.50;0.50;;;;;;;12.63;38.44;97829.81;29992;220;6004;-57
2021/03/31 00:03:01;;;;;;;0.50;0.50;;;;;;;12.61;38.50;97821.09;29992;197;6000;-58
2021/03/31 00:03:32;;;;;;;0.50;0.50;;;;;;;12.59;38.54;97828.75;29991;275;6004;-57
2021/03/31 00:04:03;;;;;;;0.50;0.50;;;;;;;12.60;38.55;97830.38;29992;203;6000;-57
2021/03/31 00:04:35;;;;;;;0.50;0.50;;;;;;;12.56;38.70;97821.13;29992;253;6004;-58
2021/03/31 00:05:07;;;;;;;0.50;0.50;;;;;;;12.59;38.78;97825.19;29992;208;6000;-57
2021/03/31 00:05:38;;;;;;;0.50;0.50;;;;;;;12.60;38.52;97835.00;29992;252;6004;-57
2021/03/31 00:06:08;;;;;;;0.50;0.50;;;;;;;12.60;38.70;97829.56;29992;252;6000;-57
2021/03/31 00:06:39;;;;;;;0.50;0.50;;;;;;;12.58;38.70;97824.38;29992;319;6005;-57
2021/03/31 00:07:11;;;;;;;0.50;0.50;;;;;;;12.58;38.45;97823.56;29991;214;6000;-57
2021/03/31 00:07:41;;;;;;;0.50;0.50;;;;;;;12.56;38.99;97826.59;29992;213;6005;-58
2021/03/31 00:08:12;;;;;;;0.50;0.50;;;;;;;12.54;38.62;97826.03;29991;219;6000;-58
2021/03/31 00:08:43;;;;;;;0.50;0.50;;;;;;;12.54;38.67;97826.03;29992;206;6005;-58
2021/03/31 00:09:14;;;;;;;0.50;0.50;;;;;;;12.53;38.62;97832.59;29992;215;6000;-58
2021/03/31 00:09:45;;;;;;;3.75;3.60;;;;;;;12.54;38.70;97826.03;29991;246;6004;-57
2021/03/31 00:10:31;;;;;;;0.50;0.50;;;;;;;12.52;38.47;97825.50;29992;220;6000;-58
2021/03/31 00:11:03;;;;;;;0.50;0.50;;;;;;;12.52;38.83;97822.78;29992;260;6004;-58
2021/03/31 00:11:33;;;;;;;0.50;0.50;;;;;;;12.50;38.66;97814.09;29992;230;6000;-59
2021/03/31 00:12:07;;;;;;;0.50;0.50;;;;;;;12.53;38.83;97829.06;29991;205;6004;-59
2021/03/31 00:12:37;;;;;;;0.50;0.50;;;;;;;12.54;38.67;97823.31;29992;220;6000;-59
2021/03/31 00:13:09;;;;;;;0.50;0.50;;;;;;;12.56;38.64;97820.31;29992;225;6004;-57
2021/03/31 00:13:39;;;;;;;0.50;0.50;;;;;;;12.55;38.41;97824.94;29991;224;6000;-57
2021/03/31 00:14:14;;;;;;;0.50;0.50;;;;;;;12.55;38.85;97827.69;29992;305;6005;-57
2021/03/31 00:14:45;;;;;;;0.50;0.50;;;;;;;12.50;38.61;97822.25;29992;229;6000;-57
2021/03/31 00:15:17;;;;;;;0.50;0.50;;;;;;;12.56;38.86;97823.84;29992;197;6005;-58
2021/03/31 00:15:47;;;;;;;0.50;0.50;;;;;;;12.53;38.70;97818.16;29992;226;6000;-58
2021/03/31 00:16:18;;;;;;;0.50;0.50;;;;;;;12.57;38.53;97820.03;29992;232;6005;-58
2021/03/31 00:16:50;;;;;;;0.50;0.50;;;;;;;12.58;38.73;97820.84;29992;224;6000;-57
2021/03/31 00:17:21;;;;;;;0.50;0.50;;;;;;;12.57;38.78;97821.94;29991;229;6004;-58
2021/03/31 00:17:51;;;;;;;0.50;0.50;;;;;;;12.55;38.75;97816.78;29991;239;6000;-57
2021/03/31 00:18:24;;;;;;;0.50;0.50;;;;;;;12.60;38.40;97826.84;29992;214;6004;-58
2021/03/31 00:18:55;;;;;;;0.50;0.50;;;;;;;12.57;38.60;97824.66;29991;271;6000;-57
2021/03/31 00:19:25;;;;;;;0.50;0.50;;;;;;;12.57;38.64;97824.66;29992;213;6004;-58
2021/03/31 00:19:56;;;;;;;0.50;0.50;;;;;;;12.55;38.59;97815.97;29991;251;6000;-57
2021/03/31 00:20:27;;;;;;;0.50;0.50;;;;;;;12.54;38.49;97826.03;29991;252;6004;-57
2021/03/31 00:20:59;;;;;;;0.50;0.50;;;;;;;12.54;38.56;97820.59;29992;202;6000;-58
2021/03/31 00:21:29;;;;;;;0.50;0.50;;;;;;;12.53;38.67;97818.97;29992;245;6005;-58
2021/03/31 00:22:01;;;;;;;0.50;0.50;;;;;;;12.53;38.43;97816.25;29992;220;6000;-58
2021/03/31 00:22:32;;;;;;;0.50;0.50;;;;;;;12.54;38.64;97815.16;29992;219;6005;-57
2021/03/31 00:23:10;;;;;;;0.50;0.50;;;;;;;12.53;38.54;97812.72;29992;224;6000;-57
2021/03/31 00:23:41;;;;;;;0.50;0.50;;;;;;;12.54;38.44;97819.78;29992;392;6005;-58
2021/03/31 00:24:13;;;;;;;0.50;0.50;;;;;;;12.51;38.58;97810.28;29992;232;6000;-57
2021/03/31 00:24:44;;;;;;;0.50;0.50;;;;;;;12.52;38.46;97811.91;29992;205;6004;-58
2021/03/31 00:25:16;;;;;;;0.50;0.50;;;;;;;12.51;38.49;97815.72;29991;244;6000;-58
2021/03/31 00:25:46;;;;;;;0.50;0.50;;;;;;;12.52;38.37;97817.34;29991;287;6004;-57
2021/03/31 00:26:17;;;;;;;0.50;0.50;;;;;;;12.51;38.43;97809.47;29992;197;6000;-58
2021/03/31 00:26:48;;;;;;;0.50;0.50;;;;;;;12.49;38.35;97812.47;29992;202;6004;-58
2021/03/31 00:27:18;;;;;;;0.50;0.50;;;;;;;12.48;38.44;97810.84;29992;228;6000;-57
2021/03/31 00:27:49;;;;;;;0.50;0.50;;;;;;;12.48;38.54;97810.84;29992;210;6004;-57
2021/03/31 00:28:20;;;;;;;0.50;0.50;;;;;;;12.47;38.71;97814.69;29992;256;6000;-58
2021/03/31 00:28:51;;;;;;;0.50;0.50;;;;;;;12.47;38.66;97809.25;29992;197;6004;-57
2021/03/31 00:29:22;;;;;;;0.50;0.50;;;;;;;12.47;38.45;97809.25;29990;202;6000;-58
2021/03/31 00:29:52;;;;;;;0.50;0.50;;;;;;;12.47;38.39;97811.97;29992;200;6005;-59
2021/03/31 00:30:24;;;;;;;0.50;0.50;;;;;;;12.47;38.52;97811.97;29992;226;6000;-58
2021/03/31 00:30:56;;;;;;;0.50;0.50;;;;;;;12.44;38.90;97804.34;29992;203;6005;-57
2021/03/31 00:31:27;;;;;;;0.50;0.50;;;;;;;12.47;38.59;97811.16;29992;379;6000;-58
2021/03/31 00:31:57;;;;;;;0.50;0.50;;;;;;;12.45;38.46;97805.19;29992;206;6004;-58
2021/03/31 00:32:29;;;;;;;0.50;0.50;;;;;;;12.45;38.48;97811.44;29992;226;6000;-58
2021/03/31 00:33:00;;;;;;;0.50;0.50;;;;;;;12.44;38.79;97809.00;29992;207;6004;-57
2021/03/31 00:33:30;;;;;;;0.50;0.50;;;;;;;12.41;38.65;97810.38;29992;221;6000;-58
2021/03/31 00:34:01;;;;;;;0.50;0.50;;;;;;;12.40;38.99;97814.19;29991;378;6004;-57
2021/03/31 00:34:32;;;;;;;0.50;0.50;;;;;;;12.39;38.97;97801.66;29992;238;6000;-58
2021/03/31 00:35:04;;;;;;;0.50;0.50;;;;;;;12.39;39.30;97807.13;29992;213;6004;-59
2021/03/31 00:35:36;;;;;;;0.50;0.50;;;;;;;12.39;38.88;97801.66;29992;204;6000;-58
2021/03/31 00:36:07;;;;;;;0.50;0.50;;;;;;;12.40;38.70;97806.00;29992;218;6005;-58
2021/03/31 00:36:38;;;;;;;0.50;0.50;;;;;;;12.40;38.60;97798.66;29992;209;6000;-57
2021/03/31 00:37:08;;;;;;;0.50;0.50;;;;;;;12.43;38.41;97808.19;29992;328;6005;-58
2021/03/31 00:37:39;;;;;;;0.50;0.50;;;;;;;12.42;38.56;97801.09;29992;239;6000;-57
2021/03/31 00:38:10;;;;;;;0.50;0.50;;;;;;;12.43;38.34;97802.72;29992;228;6005;-58
2021/03/31 00:38:41;;;;;;;0.50;0.50;;;;;;;12.44;38.38;97804.34;29991;203;6000;-59
2021/03/31 00:39:11;;;;;;;0.50;0.50;;;;;;;12.45;38.48;97802.44;29992;235;6004;-58
2021/03/31 00:39:42;;;;;;;0.50;0.50;;;;;;;12.47;38.05;97808.44;29992;220;6000;-58
2021/03/31 00:40:16;;;;;;;0.60;0.60;;;;;;;12.49;38.12;97812.47;29992;222;6004;-60
2021/03/31 00:40:49;;;;;;;0.50;0.50;;;;;;;12.47;38.31;97803.81;29992;191;6000;-58
2021/03/31 00:41:20;;;;;;;0.50;0.50;;;;;;;12.47;38.40;97803.81;29992;218;6004;-57
2021/03/31 00:41:50;;;;;;;0.50;0.50;;;;;;;12.48;38.30;97799.94;29992;221;6000;-58
2021/03/31 00:42:22;;;;;;;0.50;0.50;;;;;;;12.48;38.13;97802.69;29991;202;6004;-58
2021/03/31 00:42:53;;;;;;;0.50;0.50;;;;;;;12.49;38.04;97807.03;29991;220;6000;-58
2021/03/31 00:43:24;;;;;;;0.50;0.50;;;;;;;12.49;38.06;97806.22;29992;204;6005;-57
2021/03/31 00:43:55;;;;;;;0.50;0.50;;;;;;;12.50;37.87;97802.41;29992;211;6000;-58
2021/03/31 00:44:25;;;;;;;0.50;0.50;;;;;;;12.49;38.05;97804.31;29991;244;6005;-58
2021/03/31 00:44:58;;;;;;;0.60;0.60;;;;;;;12.50;38.03;97808.66;29992;209;6007;-58
2021/03/31 00:45:32;;;;;;;2.20;2.15;;;;;;;12.47;38.00;97798.34;29992;190;6005;-58
2021/03/31 00:46:03;;;;;;;0.50;0.50;;;;;;;12.49;38.22;97804.31;29992;218;6000;-58
2021/03/31 00:46:33;;;;;;;0.50;0.50;;;;;;;12.50;37.97;97807.84;29992;197;6004;-58
2021/03/31 00:47:04;;;;;;;0.50;0.50;;;;;;;12.49;38.07;97801.56;29992;220;6000;-58
2021/03/31 00:47:36;;;;;;;0.50;0.50;;;;;;;12.47;38.21;97803.81;29992;265;6004;-58
2021/03/31 00:48:09;;;;;;;0.50;0.50;;;;;;;12.46;38.35;97804.91;29991;237;6000;-58
2021/03/31 00:48:39;;;;;;;0.50;0.50;;;;;;;12.44;38.68;97809.81;29992;244;6004;-58
2021/03/31 00:49:10;;;;;;;0.50;0.50;;;;;;;12.42;38.55;97798.37;29990;224;6000;-58
2021/03/31 00:49:41;;;;;;;0.50;0.50;;;;;;;12.37;38.73;97792.97;29992;232;6004;-58
2021/03/31 00:50:15;;;;;;;0.50;0.50;;;;;;;12.38;38.79;97800.03;29992;248;6000;-58
2021/03/31 00:50:49;;;;;;;0.50;0.50;;;;;;;12.37;38.57;97801.13;29992;227;6004;-58
2021/03/31 00:51:19;;;;;;;0.50;0.50;;;;;;;12.36;38.87;97803.03;29992;228;6000;-57
2021/03/31 00:51:50;;;;;;;0.50;0.50;;;;;;;12.34;38.59;97798.97;29992;202;6005;-57
2021/03/31 00:52:21;;;;;;;0.50;0.50;;;;;;;12.33;38.83;97798.16;29991;220;6000;-59
2021/03/31 00:52:53;;;;;;;0.50;0.50;;;;;;;12.31;38.93;97799.53;29991;204;6005;-59
2021/03/31 00:53:37;;;;;;;0.50;0.50;;;;;;;12.30;38.94;97803.34;29992;224;6000;-58
2021/03/31 00:54:12;;;;;;;0.50;0.50;;;;;;;12.27;38.87;97804.72;29990;216;6004;-58
2021/03/31 00:54:42;;;;;;;0.50;0.50;;;;;;;12.25;38.87;97800.66;29992;220;6000;-57
2021/03/31 00:55:15;;;;;;;0.50;0.50;;;;;;;12.24;38.75;97793.59;29992;200;6004;-58
2021/03/31 00:55:50;;;;;;;0.50;0.50;;;;;;;12.22;39.28;97799.31;29992;216;6000;-57
2021/03/31 00:56:21;;;;;;;0.50;0.50;;;;;;;12.23;39.29;97797.41;29992;212;6004;-57
2021/03/31 00:56:51;;;;;;;0.50;0.50;;;;;;;12.22;39.14;97796.59;29992;269;6000;-57
2021/03/31 00:57:22;;;;;;;0.50;0.50;;;;;;;12.22;38.71;97793.88;29991;321;6004;-57
2021/03/31 00:57:53;;;;;;;0.50;0.50;;;;;;;12.24;39.43;97801.75;29992;202;6000;-58
2021/03/31 00:58:24;;;;;;;0.50;0.50;;;;;;;12.25;38.76;97800.66;29992;213;5202;-57
2021/03/31 00:58:55;;;;;;;0.50;0.50;;;;;;;12.25;38.83;97795.22;29992;221;5197;-57
2021/03/31 00:59:27;;;;;;;0.50;0.50;;;;;;;12.25;38.59;97795.22;29991;327;6005;-57
2021/03/31 00:59:57;;;;;;;0.50;0.50;;;;;;;12.26;38.67;97805.00;29992;197;5197;-57
2021/03/31 01:00:28;;;;;;;0.50;0.50;;;;;;;12.29;38.58;97790.84;29992;255;6005;-57
2021/03/31 01:01:00;;;;;;;0.50;0.50;;;;;;;12.30;38.29;97793.28;29992;203;5199;-57
2021/03/31 01:01:30;;;;;;;0.50;0.50;;;;;;;12.32;38.18;97801.16;29991;209;5208;-57
2021/03/31 01:02:01;;;;;;;0.50;0.50;;;;;;;12.32;38.13;97799.25;29992;280;5203;-58
2021/03/31 01:02:32;;;;;;;0.50;0.50;;;;;;;12.37;38.09;97798.41;29992;202;5207;-58
2021/03/31 01:03:03;;;;;;;0.50;0.50;;;;;;;12.41;37.95;97796.75;29992;311;5196;-58
2021/03/31 01:03:33;;;;;;;0.50;0.50;;;;;;;12.41;37.81;97788.59;29990;204;7004;-58
2021/03/31 01:04:05;;;;;;;0.50;0.50;;;;;;;12.43;38.17;97791.84;29992;246;5199;-58
2021/03/31 01:04:36;;;;;;;0.50;0.50;;;;;;;12.47;37.74;97792.91;29990;221;7004;-58
2021/03/31 01:05:13;;;;;;;0.50;0.50;;;;;;;12.47;37.89;97797.53;29990;202;7000;-58
2021/03/31 01:05:44;;;;;;;0.50;0.50;;;;;;;12.45;37.92;97789.66;29991;367;7004;-57
2021/03/31 01:06:14;;;;;;;0.50;0.50;;;;;;;12.44;37.96;97789.94;29991;209;7000;-57
2021/03/31 01:06:45;;;;;;;0.50;0.50;;;;;;;12.42;38.06;97790.22;29991;220;7005;-59
2021/03/31 01:07:19;;;;;;;0.50;0.50;;;;;;;12.43;38.01;97791.03;29992;216;5203;-58
2021/03/31 01:07:51;;;;;;;0.50;0.50;;;;;;;12.41;37.95;97791.31;29991;338;6005;-57
2021/03/31 01:08:21;;;;;;;0.50;0.50;;;;;;;12.43;38.03;97791.84;29991;217;6000;-58
2021/03/31 01:08:52;;;;;;;0.50;0.50;;;;;;;12.43;38.03;97791.03;29991;222;6004;-59
2021/03/31 01:09:23;;;;;;;0.50;0.50;;;;;;;12.44;37.86;97793.47;29991;246;6000;-58
2021/03/31 01:09:55;;;;;;;0.50;0.50;;;;;;;12.45;38.12;97792.38;29991;237;6004;-57
2021/03/31 01:10:31;;;;;;;0.50;0.50;;;;;;;12.47;37.92;97798.34;29988;200;7000;-58
2021/03/31 01:11:03;;;;;;;0.50;0.50;;;;;;;12.47;37.92;97786.66;29991;254;6009;-57
2021/03/31 01:12:08;;;;;;;0.50;0.50;;;;;;;12.44;37.96;97790.75;29990;275;6000;-58
2021/03/31 01:13:34;;;;;;;0.50;0.50;;;;;;;12.40;38.24;97792.41;29991;387;6004;-57
2021/03/31 01:14:27;;;;;;;0.50;0.50;;;;;;;12.36;38.42;97792.16;29991;197;6000;-57
2021/03/31 01:15:36;;;;;;;0.50;0.50;;;;;;;12.33;38.46;97791.91;29989;203;7000;-57
2021/03/31 01:16:54;;;;;;;0.50;0.50;;;;;;;12.26;38.88;97796.84;29991;214;6008;-57
2021/03/31 01:17:32;;;;;;;0.50;0.50;;;;;;;12.20;39.08;97787.88;29991;221;6000;-57
2021/03/31 01:18:14;;;;;;;0.50;0.50;;;;;;;12.16;39.08;97794.16;29990;264;6004;-57
2021/03/31 01:19:01;;;;;;;0.50;0.50;;;;;;;12.14;39.26;97788.19;29988;199;7000;-58
2021/03/31 01:20:16;;;;;;;0.50;0.50;;;;;;;12.08;39.40;97792.88;29991;213;6004;-58
2021/03/31 01:21:21;;;;;;;0.50;0.50;;;;;;;12.01;39.32;97787.75;29991;225;6000;-57
2021/03/31 01:22:40;;;;;;;0.50;0.50;;;;;;;11.94;39.64;97794.56;29991;199;6005;-57
2021/03/31 01:23:56;;;;;;;0.50;0.50;;;;;;;11.89;39.97;97798.13;29991;275;6000;-57
2021/03/31 01:25:03;;;;;;;0.50;0.50;;;;;;;11.83;39.79;97793.78;29989;350;7004;-57
2021/03/31 01:25:46;;;;;;;0.50;0.50;;;;;;;11.78;40.00;97782.97;29991;256;6000;-59
2021/03/31 01:26:29;;;;;;;0.50;0.50;;;;;;;11.76;40.37;97787.84;29991;202;6009;-57
2021/03/31 01:27:19;;;;;;;0.50;0.50;;;;;;;11.72;40.36;97792.19;29989;211;7000;-57
2021/03/31 01:28:34;;;;;;;0.50;0.50;;;;;;;11.69;40.37;97792.75;29991;246;6004;-58
2021/03/31 01:29:43;;;;;;;0.50;0.50;;;;;;;11.66;40.70;97788.69;29991;229;6000;-58
2021/03/31 01:30:39;;;;;;;0.50;0.50;;;;;;;11.67;40.43;97789.50;29991;205;6005;-58
2021/03/31 01:31:27;;;;;;;0.50;0.50;;;;;;;11.67;40.24;97789.50;29991;196;6000;-58
2021/03/31 01:32:35;;;;;;;0.50;0.50;;;;;;;11.68;40.36;97785.69;29991;216;6004;-57
2021/03/31 01:33:55;;;;;;;0.50;0.50;;;;;;;11.70;40.32;97783.50;29989;261;7000;-57
2021/03/31 01:34:50;;;;;;;0.50;0.50;;;;;;;11.68;40.31;97772.09;29991;229;6000;-57
2021/03/31 01:35:22;;;;;;;0.50;0.50;;;;;;;11.69;40.51;97777.25;29991;207;6008;-58
2021/03/31 01:35:53;;;;;;;0.50;0.50;;;;;;;11.70;40.62;97783.50;29990;202;6000;-57
2021/03/31 01:36:33;;;;;;;0.50;0.50;;;;;;;11.70;40.65;97772.62;29991;222;6005;-57
2021/03/31 01:37:10;;;;;;;0.50;0.50;;;;;;;11.70;40.90;97778.06;29989;244;7000;-58
2021/03/31 01:37:46;;;;;;;0.50;0.50;;;;;;;11.66;40.82;97772.38;29991;245;6005;-57
2021/03/31 01:38:26;;;;;;;0.50;0.50;;;;;;;11.72;40.95;97784.03;29991;263;6000;-57
2021/03/31 01:39:03;;;;;;;0.50;0.50;;;;;;;11.70;40.64;97772.62;29989;214;7004;-59
2021/03/31 01:39:38;;;;;;;0.50;0.50;;;;;;;11.71;40.68;97779.69;29991;203;6000;-57
2021/03/31 01:40:15;;;;;;;0.50;0.50;;;;;;;11.69;40.48;97777.25;29991;267;6004;-56
2021/03/31 01:40:49;;;;;;;0.50;0.50;;;;;;;11.70;40.78;97775.34;29989;203;7000;-57
2021/03/31 01:41:22;;;;;;;0.50;0.50;;;;;;;11.70;40.73;97773.44;29991;197;6000;-57
2021/03/31 01:41:57;;;;;;;0.50;0.50;;;;;;;11.71;40.51;97774.25;29991;200;6012;-58
2021/03/31 01:42:31;;;;;;;0.50;0.50;;;;;;;11.70;40.67;97772.62;29989;218;6996;-58
2021/03/31 01:43:06;;;;;;;0.50;0.50;;;;;;;11.71;40.74;97768.81;29991;258;6000;-57
2021/03/31 01:43:38;;;;;;;0.50;0.50;;;;;;;11.71;40.57;97768.81;29991;202;6005;-58
2021/03/31 01:44:11;;;;;;;0.50;0.50;;;;;;;11.69;40.56;97760.94;29991;216;6000;-57
2021/03/31 01:44:44;;;;;;;0.50;0.50;;;;;;;11.72;40.58;97770.44;29990;231;6997;-57
2021/03/31 01:45:17;;;;;;;0.50;0.50;;;;;;;11.72;40.83;97765.00;29989;206;7000;-57
2021/03/31 01:45:52;;;;;;;0.50;0.50;;;;;;;11.72;40.68;97765.00;29991;233;6004;-57
2021/03/31 01:46:27;;;;;;;0.50;0.50;;;;;;;11.71;40.96;97763.38;29989;198;7000;-57
2021/03/31 01:47:00;;;;;;;0.50;0.50;;;;;;;11.70;40.80;97773.44;29991;228;6004;-57
2021/03/31 01:47:35;;;;;;;0.50;0.50;;;;;;;11.70;40.90;97768.00;29991;254;6000;-57
2021/03/31 01:48:13;;;;;;;0.50;0.50;;;;;;;11.71;40.89;97763.38;29990;218;6995;-57
2021/03/31 01:48:46;;;;;;;0.50;0.50;;;;;;;11.71;40.71;97755.22;29991;254;6011;-57
2021/03/31 01:49:20;;;;;;;0.50;0.50;;;;;;;11.71;40.80;97764.19;29991;202;6004;-58
2021/03/31 01:49:53;;;;;;;0.50;0.50;;;;;;;11.71;40.66;97764.19;29990;206;6000;-57
2021/03/31 01:50:25;;;;;;;0.50;0.50;;;;;;;11.72;40.69;97759.56;29991;203;6005;-58
2021/03/31 01:51:05;;;;;;;0.50;0.50;;;;;;;11.73;40.62;97761.22;29991;292;6011;-57
2021/03/31 01:51:39;;;;;;;0.50;0.50;;;;;;;11.72;40.59;97759.56;29990;204;6005;-58
2021/03/31 01:52:11;;;;;;;0.50;0.50;;;;;;;11.72;40.53;97765.00;29991;203;6000;-58
2021/03/31 01:52:43;;;;;;;0.50;0.50;;;;;;;11.72;40.26;97756.84;29991;209;6005;-57
2021/03/31 01:53:16;;;;;;;0.50;0.50;;;;;;;11.72;40.29;97757.69;29991;210;6000;-57
2021/03/31 01:53:48;;;;;;;0.50;0.50;;;;;;;11.72;40.31;97760.37;29991;220;6004;-57
2021/03/31 01:54:19;;;;;;;0.50;0.50;;;;;;;11.74;40.24;97763.66;29990;289;6000;-57
2021/03/31 01:54:51;;;;;;;0.50;0.50;;;;;;;11.73;40.16;97755.75;29991;252;6004;-57
2021/03/31 01:55:23;;;;;;;0.50;0.50;;;;;;;11.73;40.33;97755.75;29990;198;6000;-57
2021/03/31 01:55:54;;;;;;;0.50;0.50;;;;;;;11.74;40.18;97749.25;29991;233;6007;-57
2021/03/31 01:56:27;;;;;;;0.50;0.50;;;;;;;11.74;40.16;97751.97;29991;245;6000;-58
2021/03/31 01:56:59;;;;;;;0.50;0.50;;;;;;;11.75;40.27;97756.31;29991;258;6004;-53
2021/03/31 01:57:31;;;;;;;0.50;0.50;;;;;;;11.76;40.26;97752.50;29991;227;6000;-58
2021/03/31 01:58:04;;;;;;;0.50;0.50;;;;;;;11.75;40.20;97746.25;29990;287;6005;-59
2021/03/31 01:58:35;;;;;;;0.50;0.50;;;;;;;11.76;40.18;97749.78;29991;206;6000;-58
2021/03/31 01:59:07;;;;;;;0.50;0.50;;;;;;;11.77;40.01;97739.75;29990;204;6005;-57
2021/03/31 01:59:41;;;;;;;0.50;0.50;;;;;;;11.77;39.92;97751.44;29991;199;6007;-58
2021/03/31 02:00:16;;;;;;;0.50;0.50;;;;;;;11.75;40.03;97748.16;29991;209;6005;-59
2021/03/31 02:00:49;;;;;;;0.50;0.50;;;;;;;11.79;40.13;97746.50;29990;202;6000;-58
2021/03/31 02:01:21;;;;;;;0.50;0.50;;;;;;;11.79;40.19;97749.22;29991;209;6004;-58
2021/03/31 02:01:57;;;;;;;0.50;0.50;;;;;;;11.81;40.06;97741.59;29992;280;6000;-58
2021/03/31 02:02:28;;;;;;;0.50;0.50;;;;;;;11.81;40.03;97741.59;29989;215;6004;-58
2021/03/31 02:02:59;;;;;;;0.50;0.50;;;;;;;11.81;39.88;97741.59;29991;202;6000;-59
2021/03/31 02:03:31;;;;;;;0.50;0.50;;;;;;;11.84;39.78;97741.03;29990;257;6004;-58
2021/03/31 02:04:04;;;;;;;0.50;0.50;;;;;;;11.85;39.62;97737.22;29990;215;6000;-58
2021/03/31 02:04:38;;;;;;;0.50;0.50;;;;;;;11.87;39.58;97739.66;29991;203;6004;-57
2021/03/31 02:05:10;;;;;;;0.50;0.50;;;;;;;11.88;39.50;97739.38;29990;220;6006;-58
2021/03/31 02:05:42;;;;;;;0.50;0.50;;;;;;;11.89;39.46;97742.91;29991;348;6005;-58
2021/03/31 02:06:14;;;;;;;0.50;0.50;;;;;;;11.92;39.09;97737.75;29991;282;6000;-58
2021/03/31 02:06:45;;;;;;;0.50;0.50;;;;;;;11.92;39.09;97737.75;29990;218;6005;-58
2021/03/31 02:07:19;;;;;;;0.50;0.50;;;;;;;11.91;39.31;97730.66;29990;256;6000;-58
2021/03/31 02:07:51;;;;;;;0.60;0.60;;;;;;;11.89;39.28;97738.28;29991;203;6005;-59
2021/03/31 02:08:23;;;;;;;0.60;0.60;;;;;;;11.88;39.69;97742.09;29991;216;6000;-58
2021/03/31 02:08:56;;;;;;;0.50;0.50;;;;;;;11.89;39.53;97738.28;29991;272;6004;-58
2021/03/31 02:09:27;;;;;;;0.50;0.50;;;;;;;11.87;39.38;97740.47;29991;196;6000;-59
2021/03/31 02:09:58;;;;;;;0.50;0.50;;;;;;;11.87;39.53;97735.03;29989;264;6004;-58
2021/03/31 02:10:30;;;;;;;0.50;0.50;;;;;;;11.84;39.63;97729.34;29990;356;6000;-58
2021/03/31 02:11:02;;;;;;;0.50;0.50;;;;;;;11.83;40.01;97731.25;29991;202;6004;-58
2021/03/31 02:11:34;;;;;;;0.50;0.50;;;;;;;11.84;39.86;97740.22;29991;246;6008;-58
2021/03/31 02:12:07;;;;;;;0.50;0.50;;;;;;;11.82;40.12;97736.97;29991;210;6004;-59
2021/03/31 02:12:39;;;;;;;0.50;0.50;;;;;;;11.83;39.93;97731.25;29991;211;6010;-58
2021/03/31 02:13:12;;;;;;;0.50;0.50;;;;;;;11.82;40.18;97736.97;29991;282;6010;-58
2021/03/31 02:13:47;;;;;;;0.50;0.50;;;;;;;11.81;40.02;97735.34;29991;292;6000;-58
2021/03/31 02:14:20;;;;;;;0.50;0.50;;;;;;;11.79;40.06;97732.91;29991;235;6020;-58
2021/03/31 02:14:52;;;;;;;0.50;0.50;;;;;;;11.77;40.24;97729.69;29990;249;6000;-58
2021/03/31 02:15:26;;;;;;;0.50;0.50;;;;;;;11.75;40.39;97729.94;29989;197;6005;-58
2021/03/31 02:15:59;;;;;;;0.60;0.60;;;;;;;11.71;40.42;97715.25;29991;271;6000;-59
2021/03/31 02:16:36;;;;;;;0.55;0.55;;;;;;;11.73;40.48;97739.47;29991;288;6004;-58
2021/03/31 02:17:09;;;;;;;0.50;0.50;;;;;;;11.74;40.39;97730.22;29990;212;6000;-57
2021/03/31 02:17:41;;;;;;;0.60;0.60;;;;;;;11.73;40.28;97734.84;29990;202;6004;-58
2021/03/31 02:18:15;;;;;;;0.50;0.50;;;;;;;11.73;40.42;97728.59;29990;283;6000;-58
2021/03/31 02:18:47;;;;;;;0.50;0.50;;;;;;;11.71;40.24;97731.56;29991;220;6004;-58
2021/03/31 02:19:19;;;;;;;0.50;0.50;;;;;;;11.71;40.85;97722.59;29990;197;6000;-58
2021/03/31 02:19:51;;;;;;;0.50;0.50;;;;;;;11.70;40.89;97720.97;29991;219;6004;-58
2021/03/31 02:20:22;;;;;;;0.50;0.50;;;;;;;11.67;40.62;97725.06;29991;204;6000;-58
2021/03/31 02:20:53;;;;;;;0.50;0.50;;;;;;;11.71;40.65;97730.75;29990;297;6005;-58
2021/03/31 02:21:24;;;;;;;0.60;0.60;;;;;;;11.70;40.61;97729.13;29991;211;6000;-59
2021/03/31 02:21:55;;;;;;;0.50;0.50;;;;;;;11.69;40.59;97731.03;29990;204;6000;-58
2021/03/31 02:22:26;;;;;;;0.50;0.50;;;;;;;11.69;40.43;97727.50;29991;210;6000;-58
2021/03/31 02:22:59;;;;;;;0.50;0.50;;;;;;;11.69;40.74;97732.94;29989;216;6005;-58
2021/03/31 02:23:34;;;;;;;0.50;0.50;;;;;;;11.69;40.60;97727.50;29991;226;6000;-58
2021/03/31 02:24:06;;;;;;;0.50;0.50;;;;;;;11.68;40.74;97731.31;29991;310;6004;-58
2021/03/31 02:24:38;;;;;;;0.50;0.50;;;;;;;11.67;40.90;97730.50;29990;247;6000;-58
2021/03/31 02:25:12;;;;;;;0.60;0.60;;;;;;;11.66;41.16;97728.06;29990;379;6004;-58
2021/03/31 02:25:47;;;;;;;0.50;0.50;;;;;;;11.62;41.11;97727.00;29990;212;6000;-59
2021/03/31 02:26:19;;;;;;;0.50;0.50;;;;;;;11.64;41.30;97738.41;29991;285;6010;-59
2021/03/31 02:26:49;;;;;;;0.50;0.50;;;;;;;11.63;41.20;97728.63;29991;224;6000;-58
2021/03/31 02:27:20;;;;;;;0.50;0.50;;;;;;;11.61;41.27;97722.66;29991;199;6004;-58
2021/03/31 02:27:51;;;;;;;0.50;0.50;;;;;;;11.60;41.45;97731.91;29990;227;6000;-58
2021/03/31 02:28:22;;;;;;;0.50;0.50;;;;;;;11.59;41.30;97722.94;29990;227;6005;-59
2021/03/31 02:28:53;;;;;;;0.50;0.50;;;;;;;11.59;41.28;97732.97;29991;203;6000;-58
2021/03/31 02:29:24;;;;;;;0.50;0.50;;;;;;;11.59;41.17;97731.09;29990;234;6005;-58
2021/03/31 02:29:55;;;;;;;0.50;0.50;;;;;;;11.60;40.98;97734.63;29991;203;6000;-58
2021/03/31 02:30:28;;;;;;;0.50;0.50;;;;;;;11.59;40.90;97722.09;29991;301;6005;-59
2021/03/31 02:31:00;;;;;;;0.50;0.50;;;;;;;11.60;40.99;97723.75;29991;245;6000;-59
2021/03/31 02:31:31;;;;;;;0.50;0.50;;;;;;;11.60;40.84;97729.19;29991;200;6004;-58
2021/03/31 02:32:05;;;;;;;0.50;0.50;;;;;;;11.59;40.69;97727.56;29991;197;6000;-58
2021/03/31 02:32:37;;;;;;;0.50;0.50;;;;;;;11.60;40.58;97732.72;29990;212;6004;-58
2021/03/31 02:33:11;;;;;;;0.50;0.50;;;;;;;11.60;40.91;97729.19;29991;297;6000;-58
2021/03/31 02:33:45;;;;;;;0.50;0.50;;;;;;;11.60;40.59;97724.56;29989;330;6004;-58
2021/03/31 02:34:18;;;;;;;0.50;0.50;;;;;;;11.61;40.52;97728.09;29991;297;6000;-58
2021/03/31 02:34:52;;;;;;;0.50;0.50;;;;;;;11.62;40.57;97721.56;29991;199;6004;-58
2021/03/31 02:35:24;;;;;;;0.50;0.50;;;;;;;11.64;40.50;97724.81;29991;224;6000;-58
2021/03/31 02:35:55;;;;;;;0.50;0.50;;;;;;;11.62;40.64;97727.81;29991;202;6005;-57
2021/03/31 02:36:25;;;;;;;0.50;0.50;;;;;;;11.63;40.23;97724.00;29989;260;6000;-57
2021/03/31 02:36:57;;;;;;;0.50;0.50;;;;;;;11.65;40.24;97721.00;29991;324;6005;-58
2021/03/31 02:37:28;;;;;;;0.47;0.47;;;;;;;11.65;40.28;97721.00;29991;222;6010;-59
2021/03/31 02:38:02;;;;;;;0.50;0.50;;;;;;;11.65;40.28;97726.44;29990;227;6004;-58
2021/03/31 02:38:32;;;;;;;0.50;0.50;;;;;;;11.64;40.31;97708.50;29990;202;6000;-58
2021/03/31 02:39:04;;;;;;;0.50;0.50;;;;;;;11.63;40.24;97717.75;29990;239;6004;-58
2021/03/31 02:39:37;;;;;;;0.50;0.50;;;;;;;11.62;40.25;97716.13;29990;263;6000;-58
2021/03/31 02:40:12;;;;;;;0.50;0.50;;;;;;;11.62;40.38;97716.13;29990;200;6004;-58
2021/03/31 02:40:47;;;;;;;0.50;0.50;;;;;;;11.61;40.28;97709.06;29991;204;6000;-58
2021/03/31 02:41:19;;;;;;;0.50;0.50;;;;;;;11.61;40.46;97715.31;29990;202;6004;-57
2021/03/31 02:41:54;;;;;;;0.50;0.50;;;;;;;11.62;40.43;97716.94;29991;202;6000;-58
2021/03/31 02:42:26;;;;;;;0.50;0.50;;;;;;;11.62;40.46;97710.69;29990;261;6008;-58
2021/03/31 02:42:59;;;;;;;0.50;0.50;;;;;;;11.61;40.18;97714.50;29989;275;6000;-58
2021/03/31 02:43:31;;;;;;;0.50;0.50;;;;;;;11.60;40.25;97713.69;29990;236;6005;-58
2021/03/31 02:44:03;;;;;;;0.50;0.50;;;;;;;11.60;40.55;97712.88;29990;270;6000;-58
2021/03/31 02:44:38;;;;;;;0.50;0.50;;;;;;;11.60;40.44;97707.44;29990;224;6005;-58
2021/03/31 02:45:14;;;;;;;0.50;0.50;;;;;;;11.57;40.42;97713.41;29991;278;6000;-58
2021/03/31 02:45:51;;;;;;;0.50;0.50;;;;;;;11.56;40.73;97711.78;29991;247;6004;-58
2021/03/31 02:46:23;;;;;;;0.50;0.50;;;;;;;11.56;40.91;97715.31;29991;216;6000;-58
2021/03/31 02:46:57;;;;;;;0.50;0.50;;;;;;;11.57;40.76;97713.41;29991;228;6004;-58
2021/03/31 02:47:35;;;;;;;0.50;0.50;;;;;;;11.54;40.55;97708.53;29990;212;6000;-57